Aalborg, Denmark

11:58 AM CET on January 17, 2018 (GMT +0100)
Aalborg | | Change Station

Elev 101 ft 57.04 °N, 9.96 °E | Updated 33 seconds ago

Scattered Clouds
Scattered Clouds
33.1 °F
Feels Like 33 °F
N
0.0
Wind Variable Wind from SSW
Gusts 0.0 mph

Today
High -- | Low -- °F
--% Chance of Precip.
Yesterday
High -- | Low -- °F
Precip. -- in
Pressure 29.12 in
Visibility 6.2 miles
Clouds Few 500 ft
Scattered Clouds 6000 ft
Windchill 33 °F
Dew Point 32 °F
Humidity 97%
Rainfall 0.00 in
Snow Depth Not available.
8:45 AM 4:16 PM
New Moon, 0% visible
METAR EKYT 171050Z AUTO 23005KT 9999NDV FEW005/// SCT060/// 02/01 Q0986 R26L/720277
Pressure 29.12 in
Visibility 6.2 miles
Clouds Few 500 ft
Scattered Clouds 6000 ft
Windchill 33 °F
Dew Point 32 °F
Humidity 97%
Rainfall 0.00 in
Snow Depth Not available.
8:45 AM 4:16 PM
New Moon, 0% visible
METAR EKYT 171050Z AUTO 23005KT 9999NDV FEW005/// SCT060/// 02/01 Q0986 R26L/720277

Get Severe Weather Alerts

Thanks for signing up!

Be on the lookout for a verification email in your inbox.

You'll start receiving the daily forecast at 6 AM.

×

10-Day Weather Forecast

×

Almanac

Astronomy

Jan. 17, 2018 Rise Set
Actual Time
Civil Twilight
Nautical Twilight
Astronomical Twilight
Moon
Length of Visible Light
Length of Day
Tomorrow will be .
, % of the Moon is Illuminated

Today's Extremes

Country Highs Country Lows

Community

WunderPhotos

Category 6

Welcome to Category 6. This is the collective home for Weather Underground's featured writeups by Dr. Jeff Masters (right), Bob Henson (left), Chris Burt, and other regular contributors.

Nearby

Air Quality

  Air Quality AQ Index Pollutant
Not available.

Snow Depth

Station Depth Elevation

Earthquake Activity

City Distance Mag. Time & Date
Minimum magnitude displayed is 2.5.

Coastal Water Temperatures

Place Temperature

Stations

Nearby Weather Stations

Station Location Temp. Windchill Dew Point Humidity Wind Precip. Elev Updated Type